sensor_id;sensor_type;location;lat;lon;timestamp;P1;durP1;ratioP1;P2;durP2;ratioP2
6077;SDS011;3067;49.470;10.394;2023-06-22T00:02:07;14.00;;;9.57;;
6077;SDS011;3067;49.470;10.394;2023-06-22T00:04:34;17.23;;;9.57;;
6077;SDS011;3067;49.470;10.394;2023-06-22T00:07:01;12.00;;;9.47;;
6077;SDS011;3067;49.470;10.394;2023-06-22T00:09:28;14.43;;;9.50;;
6077;SDS011;3067;49.470;10.394;2023-06-22T00:11:56;12.97;;;10.07;;
6077;SDS011;3067;49.470;10.394;2023-06-22T00:14:24;18.53;;;9.63;;
6077;SDS011;3067;49.470;10.394;2023-06-22T00:16:52;13.83;;;9.50;;
6077;SDS011;3067;49.470;10.394;2023-06-22T00:19:24;19.20;;;11.23;;
6077;SDS011;3067;49.470;10.394;2023-06-22T00:21:51;14.87;;;9.67;;
6077;SDS011;3067;49.470;10.394;2023-06-22T00:24:18;13.40;;;10.00;;
6077;SDS011;3067;49.470;10.394;2023-06-22T00:26:46;14.77;;;10.37;;
6077;SDS011;3067;49.470;10.394;2023-06-22T00:29:13;15.23;;;11.00;;
6077;SDS011;3067;49.470;10.394;2023-06-22T00:31:42;20.30;;;10.43;;
6077;SDS011;3067;49.470;10.394;2023-06-22T00:34:10;14.03;;;11.17;;
6077;SDS011;3067;49.470;10.394;2023-06-22T00:36:37;15.80;;;10.70;;
6077;SDS011;3067;49.470;10.394;2023-06-22T00:39:06;13.63;;;10.50;;
6077;SDS011;3067;49.470;10.394;2023-06-22T00:41:33;17.30;;;11.27;;
6077;SDS011;3067;49.470;10.394;2023-06-22T00:44:01;21.17;;;10.10;;
6077;SDS011;3067;49.470;10.394;2023-06-22T00:46:29;19.93;;;11.03;;
6077;SDS011;3067;49.470;10.394;2023-06-22T00:48:58;22.90;;;11.43;;
6077;SDS011;3067;49.470;10.394;2023-06-22T00:51:25;18.73;;;11.10;;
6077;SDS011;3067;49.470;10.394;2023-06-22T00:53:52;26.30;;;10.80;;
6077;SDS011;3067;49.470;10.394;2023-06-22T00:56:20;17.87;;;10.07;;
6077;SDS011;3067;49.470;10.394;2023-06-22T00:58:50;16.07;;;10.27;;
6077;SDS011;3067;49.470;10.394;2023-06-22T01:01:19;11.20;;;9.10;;
6077;SDS011;3067;49.470;10.394;2023-06-22T01:03:48;17.67;;;9.60;;
6077;SDS011;3067;49.470;10.394;2023-06-22T01:06:18;16.57;;;9.63;;
6077;SDS011;3067;49.470;10.394;2023-06-22T01:08:47;23.87;;;11.07;;
6077;SDS011;3067;49.470;10.394;2023-06-22T01:13:45;15.43;;;10.20;;
6077;SDS011;3067;49.470;10.394;2023-06-22T01:16:16;19.53;;;10.60;;
6077;SDS011;3067;49.470;10.394;2023-06-22T01:18:44;26.27;;;10.37;;
6077;SDS011;3067;49.470;10.394;2023-06-22T01:21:14;18.93;;;10.07;;
6077;SDS011;3067;49.470;10.394;2023-06-22T01:23:49;19.33;;;10.57;;
6077;SDS011;3067;49.470;10.394;2023-06-22T01:26:18;19.40;;;10.63;;
6077;SDS011;3067;49.470;10.394;2023-06-22T01:28:48;17.97;;;11.17;;
6077;SDS011;3067;49.470;10.394;2023-06-22T01:31:16;15.97;;;10.90;;
6077;SDS011;3067;49.470;10.394;2023-06-22T01:33:45;16.07;;;10.50;;
6077;SDS011;3067;49.470;10.394;2023-06-22T01:36:13;24.43;;;10.70;;
6077;SDS011;3067;49.470;10.394;2023-06-22T01:38:41;17.73;;;11.57;;
6077;SDS011;3067;49.470;10.394;2023-06-22T01:41:09;22.17;;;12.47;;
6077;SDS011;3067;49.470;10.394;2023-06-22T01:43:36;15.13;;;11.57;;
6077;SDS011;3067;49.470;10.394;2023-06-22T01:46:05;14.83;;;10.87;;
6077;SDS011;3067;49.470;10.394;2023-06-22T01:48:33;19.00;;;11.20;;
6077;SDS011;3067;49.470;10.394;2023-06-22T01:51:00;23.47;;;10.50;;
6077;SDS011;3067;49.470;10.394;2023-06-22T01:53:28;15.10;;;9.93;;
6077;SDS011;3067;49.470;10.394;2023-06-22T01:55:55;17.33;;;10.87;;
6077;SDS011;3067;49.470;10.394;2023-06-22T01:58:23;16.73;;;10.97;;
6077;SDS011;3067;49.470;10.394;2023-06-22T02:00:53;23.47;;;11.63;;
6077;SDS011;3067;49.470;10.394;2023-06-22T02:03:25;13.13;;;10.60;;
6077;SDS011;3067;49.470;10.394;2023-06-22T02:05:55;15.67;;;10.87;;
6077;SDS011;3067;49.470;10.394;2023-06-22T02:08:24;19.90;;;10.87;;
6077;SDS011;3067;49.470;10.394;2023-06-22T02:10:52;18.53;;;11.40;;
6077;SDS011;3067;49.470;10.394;2023-06-22T02:13:20;26.90;;;11.80;;
6077;SDS011;3067;49.470;10.394;2023-06-22T02:15:47;32.53;;;13.00;;
6077;SDS011;3067;49.470;10.394;2023-06-22T02:18:15;29.13;;;14.57;;
6077;SDS011;3067;49.470;10.394;2023-06-22T02:20:44;23.43;;;14.07;;
6077;SDS011;3067;49.470;10.394;2023-06-22T02:23:11;25.57;;;13.90;;
6077;SDS011;3067;49.470;10.394;2023-06-22T02:25:38;24.17;;;14.00;;
6077;SDS011;3067;49.470;10.394;2023-06-22T02:28:09;17.93;;;13.20;;
6077;SDS011;3067;49.470;10.394;2023-06-22T02:30:36;19.23;;;12.80;;
6077;SDS011;3067;49.470;10.394;2023-06-22T02:33:04;22.27;;;12.20;;
6077;SDS011;3067;49.470;10.394;2023-06-22T02:35:31;21.73;;;13.17;;
6077;SDS011;3067;49.470;10.394;2023-06-22T02:38:02;21.17;;;13.10;;
6077;SDS011;3067;49.470;10.394;2023-06-22T02:40:30;24.23;;;13.97;;
6077;SDS011;3067;49.470;10.394;2023-06-22T02:42:57;23.87;;;13.63;;
6077;SDS011;3067;49.470;10.394;2023-06-22T02:45:27;26.10;;;13.63;;
6077;SDS011;3067;49.470;10.394;2023-06-22T02:47:55;29.20;;;12.93;;
6077;SDS011;3067;49.470;10.394;2023-06-22T02:50:22;28.30;;;12.73;;
6077;SDS011;3067;49.470;10.394;2023-06-22T02:52:49;22.43;;;12.93;;
6077;SDS011;3067;49.470;10.394;2023-06-22T02:55:18;22.40;;;12.63;;
6077;SDS011;3067;49.470;10.394;2023-06-22T02:57:45;29.23;;;13.40;;
6077;SDS011;3067;49.470;10.394;2023-06-22T03:00:17;30.53;;;13.20;;
6077;SDS011;3067;49.470;10.394;2023-06-22T03:02:45;40.23;;;12.87;;
6077;SDS011;3067;49.470;10.394;2023-06-22T03:05:13;29.13;;;13.43;;
6077;SDS011;3067;49.470;10.394;2023-06-22T03:07:43;22.37;;;12.60;;
6077;SDS011;3067;49.470;10.394;2023-06-22T03:10:11;21.17;;;13.10;;
6077;SDS011;3067;49.470;10.394;2023-06-22T03:12:40;31.13;;;13.00;;
6077;SDS011;3067;49.470;10.394;2023-06-22T03:15:08;19.57;;;12.93;;
6077;SDS011;3067;49.470;10.394;2023-06-22T03:17:35;27.43;;;13.50;;
6077;SDS011;3067;49.470;10.394;2023-06-22T03:20:04;32.17;;;13.97;;
6077;SDS011;3067;49.470;10.394;2023-06-22T03:22:34;36.53;;;13.33;;
6077;SDS011;3067;49.470;10.394;2023-06-22T03:25:02;19.80;;;13.17;;
6077;SDS011;3067;49.470;10.394;2023-06-22T03:27:29;24.23;;;14.03;;
6077;SDS011;3067;49.470;10.394;2023-06-22T03:29:58;29.10;;;14.83;;
6077;SDS011;3067;49.470;10.394;2023-06-22T03:32:25;19.70;;;14.30;;
6077;SDS011;3067;49.470;10.394;2023-06-22T03:34:53;21.10;;;14.20;;
6077;SDS011;3067;49.470;10.394;2023-06-22T03:37:24;23.77;;;14.50;;
6077;SDS011;3067;49.470;10.394;2023-06-22T03:39:51;26.50;;;14.10;;
6077;SDS011;3067;49.470;10.394;2023-06-22T03:42:18;21.73;;;14.20;;
6077;SDS011;3067;49.470;10.394;2023-06-22T03:44:46;25.77;;;14.47;;
6077;SDS011;3067;49.470;10.394;2023-06-22T03:47:14;19.13;;;13.40;;
6077;SDS011;3067;49.470;10.394;2023-06-22T03:49:42;26.67;;;13.13;;
6077;SDS011;3067;49.470;10.394;2023-06-22T03:52:09;24.90;;;13.40;;
6077;SDS011;3067;49.470;10.394;2023-06-22T03:54:37;21.27;;;14.40;;
6077;SDS011;3067;49.470;10.394;2023-06-22T03:57:04;19.73;;;13.43;;
6077;SDS011;3067;49.470;10.394;2023-06-22T03:59:31;21.20;;;13.07;;
6077;SDS011;3067;49.470;10.394;2023-06-22T04:01:59;23.47;;;12.83;;
6077;SDS011;3067;49.470;10.394;2023-06-22T04:04:27;18.60;;;12.87;;
6077;SDS011;3067;49.470;10.394;2023-06-22T04:06:55;22.93;;;13.33;;
6077;SDS011;3067;49.470;10.394;2023-06-22T04:09:22;20.70;;;13.23;;
6077;SDS011;3067;49.470;10.394;2023-06-22T04:11:50;20.40;;;13.93;;
6077;SDS011;3067;49.470;10.394;2023-06-22T04:14:17;24.43;;;14.17;;
6077;SDS011;3067;49.470;10.394;2023-06-22T04:16:44;20.57;;;13.90;;
6077;SDS011;3067;49.470;10.394;2023-06-22T04:19:11;26.60;;;14.30;;
6077;SDS011;3067;49.470;10.394;2023-06-22T04:21:43;20.13;;;13.80;;
6077;SDS011;3067;49.470;10.394;2023-06-22T04:24:10;20.10;;;13.27;;
6077;SDS011;3067;49.470;10.394;2023-06-22T04:26:38;18.50;;;12.83;;
6077;SDS011;3067;49.470;10.394;2023-06-22T04:29:07;22.67;;;12.57;;
6077;SDS011;3067;49.470;10.394;2023-06-22T04:31:34;22.93;;;12.90;;
6077;SDS011;3067;49.470;10.394;2023-06-22T04:34:02;18.00;;;13.07;;
6077;SDS011;3067;49.470;10.394;2023-06-22T04:36:32;16.43;;;11.97;;
6077;SDS011;3067;49.470;10.394;2023-06-22T04:39:04;27.27;;;13.07;;
6077;SDS011;3067;49.470;10.394;2023-06-22T04:41:32;18.27;;;12.87;;
6077;SDS011;3067;49.470;10.394;2023-06-22T04:44:07;18.50;;;11.97;;
6077;SDS011;3067;49.470;10.394;2023-06-22T04:46:34;22.10;;;12.43;;
6077;SDS011;3067;49.470;10.394;2023-06-22T04:49:03;17.80;;;12.30;;
6077;SDS011;3067;49.470;10.394;2023-06-22T04:51:31;15.80;;;11.90;;
6077;SDS011;3067;49.470;10.394;2023-06-22T04:53:58;16.60;;;12.30;;
6077;SDS011;3067;49.470;10.394;2023-06-22T04:56:28;19.63;;;13.40;;
6077;SDS011;3067;49.470;10.394;2023-06-22T04:58:55;22.87;;;12.40;;
6077;SDS011;3067;49.470;10.394;2023-06-22T05:01:23;17.67;;;11.67;;
6077;SDS011;3067;49.470;10.394;2023-06-22T05:03:50;18.40;;;12.50;;
6077;SDS011;3067;49.470;10.394;2023-06-22T05:06:20;17.50;;;11.93;;
6077;SDS011;3067;49.470;10.394;2023-06-22T05:08:49;19.57;;;12.03;;
6077;SDS011;3067;49.470;10.394;2023-06-22T05:11:16;19.67;;;12.07;;
6077;SDS011;3067;49.470;10.394;2023-06-22T05:13:45;14.97;;;11.80;;
6077;SDS011;3067;49.470;10.394;2023-06-22T05:16:12;19.53;;;12.77;;
6077;SDS011;3067;49.470;10.394;2023-06-22T05:18:40;16.40;;;12.10;;
6077;SDS011;3067;49.470;10.394;2023-06-22T05:21:08;15.30;;;11.67;;
6077;SDS011;3067;49.470;10.394;2023-06-22T05:23:35;14.50;;;11.80;;
6077;SDS011;3067;49.470;10.394;2023-06-22T05:26:03;17.23;;;12.70;;
6077;SDS011;3067;49.470;10.394;2023-06-22T05:28:30;18.63;;;12.63;;
6077;SDS011;3067;49.470;10.394;2023-06-22T05:30:59;18.13;;;12.50;;
6077;SDS011;3067;49.470;10.394;2023-06-22T05:33:26;19.67;;;13.00;;
6077;SDS011;3067;49.470;10.394;2023-06-22T05:35:53;15.17;;;12.30;;
6077;SDS011;3067;49.470;10.394;2023-06-22T05:38:21;21.27;;;11.80;;
6077;SDS011;3067;49.470;10.394;2023-06-22T05:40:48;19.00;;;12.57;;
6077;SDS011;3067;49.470;10.394;2023-06-22T05:43:15;15.10;;;12.30;;
6077;SDS011;3067;49.470;10.394;2023-06-22T05:45:43;17.87;;;13.00;;
6077;SDS011;3067;49.470;10.394;2023-06-22T05:48:11;15.33;;;11.53;;
6077;SDS011;3067;49.470;10.394;2023-06-22T05:50:39;14.77;;;11.20;;
6077;SDS011;3067;49.470;10.394;2023-06-22T05:53:06;15.43;;;11.17;;
6077;SDS011;3067;49.470;10.394;2023-06-22T05:55:33;15.53;;;11.70;;
6077;SDS011;3067;49.470;10.394;2023-06-22T05:58:00;14.67;;;11.30;;
6077;SDS011;3067;49.470;10.394;2023-06-22T06:00:28;14.60;;;11.67;;
6077;SDS011;3067;49.470;10.394;2023-06-22T06:02:55;16.70;;;11.47;;
6077;SDS011;3067;49.470;10.394;2023-06-22T06:05:29;14.33;;;10.90;;
6077;SDS011;3067;49.470;10.394;2023-06-22T06:07:57;12.50;;;10.93;;
6077;SDS011;3067;49.470;10.394;2023-06-22T06:10:24;12.93;;;10.87;;
6077;SDS011;3067;49.470;10.394;2023-06-22T06:12:52;17.03;;;11.33;;
6077;SDS011;3067;49.470;10.394;2023-06-22T06:15:20;11.83;;;10.40;;
6077;SDS011;3067;49.470;10.394;2023-06-22T06:17:47;11.47;;;9.80;;
6077;SDS011;3067;49.470;10.394;2023-06-22T06:20:15;15.80;;;9.83;;
6077;SDS011;3067;49.470;10.394;2023-06-22T06:22:43;11.07;;;9.90;;
6077;SDS011;3067;49.470;10.394;2023-06-22T06:25:12;19.80;;;9.90;;
6077;SDS011;3067;49.470;10.394;2023-06-22T06:27:41;10.70;;;9.60;;
6077;SDS011;3067;49.470;10.394;2023-06-22T06:30:09;11.83;;;9.20;;
6077;SDS011;3067;49.470;10.394;2023-06-22T06:32:37;11.40;;;9.17;;
6077;SDS011;3067;49.470;10.394;2023-06-22T06:35:05;10.00;;;9.00;;
6077;SDS011;3067;49.470;10.394;2023-06-22T06:37:33;9.63;;;8.50;;
6077;SDS011;3067;49.470;10.394;2023-06-22T06:40:03;9.17;;;8.27;;
6077;SDS011;3067;49.470;10.394;2023-06-22T06:42:33;9.83;;;8.30;;
6077;SDS011;3067;49.470;10.394;2023-06-22T06:45:01;10.73;;;8.10;;
6077;SDS011;3067;49.470;10.394;2023-06-22T06:47:28;7.60;;;6.90;;
6077;SDS011;3067;49.470;10.394;2023-06-22T06:49:55;10.53;;;8.13;;
6077;SDS011;3067;49.470;10.394;2023-06-22T06:52:22;8.00;;;7.20;;
6077;SDS011;3067;49.470;10.394;2023-06-22T06:54:50;10.67;;;6.83;;
6077;SDS011;3067;49.470;10.394;2023-06-22T06:57:19;7.47;;;6.67;;
6077;SDS011;3067;49.470;10.394;2023-06-22T06:59:47;7.23;;;6.53;;
6077;SDS011;3067;49.470;10.394;2023-06-22T07:02:15;10.20;;;6.87;;
6077;SDS011;3067;49.470;10.394;2023-06-22T07:04:42;9.67;;;6.07;;
6077;SDS011;3067;49.470;10.394;2023-06-22T07:07:10;6.80;;;6.30;;
6077;SDS011;3067;49.470;10.394;2023-06-22T07:09:37;8.43;;;7.20;;
6077;SDS011;3067;49.470;10.394;2023-06-22T07:12:05;7.07;;;6.30;;
6077;SDS011;3067;49.470;10.394;2023-06-22T07:14:34;7.70;;;6.77;;
6077;SDS011;3067;49.470;10.394;2023-06-22T07:17:01;6.70;;;6.00;;
6077;SDS011;3067;49.470;10.394;2023-06-22T07:19:29;8.23;;;5.83;;
6077;SDS011;3067;49.470;10.394;2023-06-22T07:21:56;8.53;;;6.10;;
6077;SDS011;3067;49.470;10.394;2023-06-22T07:24:24;7.10;;;5.60;;
6077;SDS011;3067;49.470;10.394;2023-06-22T07:26:51;6.57;;;5.87;;
6077;SDS011;3067;49.470;10.394;2023-06-22T07:29:18;5.20;;;4.80;;
6077;SDS011;3067;49.470;10.394;2023-06-22T07:31:47;5.90;;;5.30;;
6077;SDS011;3067;49.470;10.394;2023-06-22T07:34:16;5.73;;;5.17;;
6077;SDS011;3067;49.470;10.394;2023-06-22T07:36:43;5.67;;;5.10;;
6077;SDS011;3067;49.470;10.394;2023-06-22T07:39:11;6.00;;;5.50;;
6077;SDS011;3067;49.470;10.394;2023-06-22T07:41:39;7.30;;;5.57;;
6077;SDS011;3067;49.470;10.394;2023-06-22T07:44:06;5.73;;;4.83;;
6077;SDS011;3067;49.470;10.394;2023-06-22T07:46:34;9.80;;;4.60;;
6077;SDS011;3067;49.470;10.394;2023-06-22T07:49:02;5.20;;;4.70;;
6077;SDS011;3067;49.470;10.394;2023-06-22T07:51:30;5.30;;;4.83;;
6077;SDS011;3067;49.470;10.394;2023-06-22T07:53:57;4.50;;;4.17;;
6077;SDS011;3067;49.470;10.394;2023-06-22T07:56:24;5.50;;;4.70;;
6077;SDS011;3067;49.470;10.394;2023-06-22T07:58:52;5.40;;;4.90;;
6077;SDS011;3067;49.470;10.394;2023-06-22T08:01:20;4.70;;;4.30;;
6077;SDS011;3067;49.470;10.394;2023-06-22T08:03:47;5.13;;;4.20;;
6077;SDS011;3067;49.470;10.394;2023-06-22T08:06:16;10.30;;;4.50;;
6077;SDS011;3067;49.470;10.394;2023-06-22T08:08:43;4.27;;;3.97;;
6077;SDS011;3067;49.470;10.394;2023-06-22T08:11:13;8.47;;;4.57;;
6077;SDS011;3067;49.470;10.394;2023-06-22T08:13:40;4.90;;;4.40;;
6077;SDS011;3067;49.470;10.394;2023-06-22T08:16:07;4.00;;;3.70;;
6077;SDS011;3067;49.470;10.394;2023-06-22T08:18:34;5.73;;;4.47;;
6077;SDS011;3067;49.470;10.394;2023-06-22T08:21:02;4.40;;;3.83;;
6077;SDS011;3067;49.470;10.394;2023-06-22T08:23:31;4.50;;;4.10;;
6077;SDS011;3067;49.470;10.394;2023-06-22T08:25:58;4.27;;;3.87;;
6077;SDS011;3067;49.470;10.394;2023-06-22T08:28:25;4.90;;;4.50;;
6077;SDS011;3067;49.470;10.394;2023-06-22T08:30:53;3.60;;;3.40;;
6077;SDS011;3067;49.470;10.394;2023-06-22T08:33:20;4.77;;;4.37;;
6077;SDS011;3067;49.470;10.394;2023-06-22T08:35:53;4.00;;;3.70;;
6077;SDS011;3067;49.470;10.394;2023-06-22T08:38:20;4.30;;;4.00;;
6077;SDS011;3067;49.470;10.394;2023-06-22T08:40:49;3.90;;;3.60;;
6077;SDS011;3067;49.470;10.394;2023-06-22T08:43:16;5.13;;;4.63;;
6077;SDS011;3067;49.470;10.394;2023-06-22T08:45:44;8.33;;;4.30;;
6077;SDS011;3067;49.470;10.394;2023-06-22T08:48:11;4.40;;;4.10;;
6077;SDS011;3067;49.470;10.394;2023-06-22T08:50:38;5.13;;;4.53;;
6077;SDS011;3067;49.470;10.394;2023-06-22T08:53:05;6.50;;;4.00;;
6077;SDS011;3067;49.470;10.394;2023-06-22T08:55:33;4.63;;;4.23;;
6077;SDS011;3067;49.470;10.394;2023-06-22T08:58:02;4.83;;;3.47;;
6077;SDS011;3067;49.470;10.394;2023-06-22T09:00:30;7.00;;;4.63;;
6077;SDS011;3067;49.470;10.394;2023-06-22T09:02:57;4.27;;;3.90;;
6077;SDS011;3067;49.470;10.394;2023-06-22T09:05:25;3.80;;;3.60;;
6077;SDS011;3067;49.470;10.394;2023-06-22T09:07:52;5.73;;;4.20;;
6077;SDS011;3067;49.470;10.394;2023-06-22T09:10:20;7.80;;;4.27;;
6077;SDS011;3067;49.470;10.394;2023-06-22T09:12:48;4.63;;;4.23;;
6077;SDS011;3067;49.470;10.394;2023-06-22T09:15:17;7.20;;;4.47;;
6077;SDS011;3067;49.470;10.394;2023-06-22T09:17:44;5.70;;;4.23;;
6077;SDS011;3067;49.470;10.394;2023-06-22T09:20:12;6.60;;;4.13;;
6077;SDS011;3067;49.470;10.394;2023-06-22T09:22:40;5.43;;;4.43;;
6077;SDS011;3067;49.470;10.394;2023-06-22T09:25:07;6.03;;;4.50;;
6077;SDS011;3067;49.470;10.394;2023-06-22T09:27:35;9.37;;;4.33;;
6077;SDS011;3067;49.470;10.394;2023-06-22T09:30:02;8.40;;;3.87;;
6077;SDS011;3067;49.470;10.394;2023-06-22T09:32:31;4.20;;;3.90;;
6077;SDS011;3067;49.470;10.394;2023-06-22T09:34:58;5.28;;;4.45;;
6077;SDS011;3067;49.470;10.394;2023-06-22T09:37:25;7.40;;;4.47;;
6077;SDS011;3067;49.470;10.394;2023-06-22T09:39:53;4.50;;;4.10;;
6077;SDS011;3067;49.470;10.394;2023-06-22T09:42:20;4.80;;;4.40;;
6077;SDS011;3067;49.470;10.394;2023-06-22T09:44:48;5.80;;;4.25;;
6077;SDS011;3067;49.470;10.394;2023-06-22T09:47:15;5.05;;;4.55;;
6077;SDS011;3067;49.470;10.394;2023-06-22T09:49:44;8.80;;;4.82;;
6077;SDS011;3067;49.470;10.394;2023-06-22T09:52:11;5.25;;;4.55;;
6077;SDS011;3067;49.470;10.394;2023-06-22T09:54:38;4.95;;;4.40;;
6077;SDS011;3067;49.470;10.394;2023-06-22T09:57:05;6.20;;;4.60;;
6077;SDS011;3067;49.470;10.394;2023-06-22T09:59:33;5.22;;;4.72;;
6077;SDS011;3067;49.470;10.394;2023-06-22T10:02:00;9.63;;;5.07;;
6077;SDS011;3067;49.470;10.394;2023-06-22T10:04:27;4.72;;;4.35;;
6077;SDS011;3067;49.470;10.394;2023-06-22T10:06:56;7.07;;;5.22;;
6077;SDS011;3067;49.470;10.394;2023-06-22T10:09:23;4.88;;;4.47;;
6077;SDS011;3067;49.470;10.394;2023-06-22T10:11:51;6.03;;;4.53;;
6077;SDS011;3067;49.470;10.394;2023-06-22T10:14:18;6.82;;;4.90;;
6077;SDS011;3067;49.470;10.394;2023-06-22T10:16:45;5.82;;;4.85;;
6077;SDS011;3067;49.470;10.394;2023-06-22T10:19:13;6.72;;;4.50;;
6077;SDS011;3067;49.470;10.394;2023-06-22T10:21:40;5.07;;;4.65;;
6077;SDS011;3067;49.470;10.394;2023-06-22T10:24:09;7.35;;;4.60;;
6077;SDS011;3067;49.470;10.394;2023-06-22T10:26:37;7.95;;;4.80;;
6077;SDS011;3067;49.470;10.394;2023-06-22T10:29:06;16.27;;;5.78;;
6077;SDS011;3067;49.470;10.394;2023-06-22T10:31:48;6.55;;;4.43;;
6077;SDS011;3067;49.470;10.394;2023-06-22T10:34:15;8.07;;;4.15;;
6077;SDS011;3067;49.470;10.394;2023-06-22T10:36:42;4.50;;;4.20;;
6077;SDS011;3067;49.470;10.394;2023-06-22T10:39:13;9.40;;;4.72;;
6077;SDS011;3067;49.470;10.394;2023-06-22T10:41:41;6.97;;;4.45;;
6077;SDS011;3067;49.470;10.394;2023-06-22T10:44:08;4.95;;;4.45;;
6077;SDS011;3067;49.470;10.394;2023-06-22T10:46:36;4.80;;;4.40;;
6077;SDS011;3067;49.470;10.394;2023-06-22T10:49:03;5.70;;;5.00;;
6077;SDS011;3067;49.470;10.394;2023-06-22T10:51:30;4.43;;;3.85;;
6077;SDS011;3067;49.470;10.394;2023-06-22T10:53:58;11.63;;;4.90;;
6077;SDS011;3067;49.470;10.394;2023-06-22T10:56:27;5.40;;;4.22;;
6077;SDS011;3067;49.470;10.394;2023-06-22T10:58:54;6.78;;;4.25;;
6077;SDS011;3067;49.470;10.394;2023-06-22T11:01:21;5.05;;;4.03;;
6077;SDS011;3067;49.470;10.394;2023-06-22T11:03:49;4.45;;;4.05;;
6077;SDS011;3067;49.470;10.394;2023-06-22T11:06:16;9.05;;;4.28;;
6077;SDS011;3067;49.470;10.394;2023-06-22T11:08:44;4.10;;;3.58;;
6077;SDS011;3067;49.470;10.394;2023-06-22T11:11:11;4.20;;;3.85;;
6077;SDS011;3067;49.470;10.394;2023-06-22T11:13:40;7.40;;;3.88;;
6077;SDS011;3067;49.470;10.394;2023-06-22T11:16:07;7.45;;;4.07;;
6077;SDS011;3067;49.470;10.394;2023-06-22T11:18:34;4.63;;;3.65;;
6077;SDS011;3067;49.470;10.394;2023-06-22T11:21:02;5.00;;;3.67;;
6077;SDS011;3067;49.470;10.394;2023-06-22T11:23:29;4.32;;;3.75;;
6077;SDS011;3067;49.470;10.394;2023-06-22T11:25:56;5.30;;;3.20;;
6077;SDS011;3067;49.470;10.394;2023-06-22T11:28:24;7.63;;;3.88;;
6077;SDS011;3067;49.470;10.394;2023-06-22T11:30:52;5.57;;;3.60;;
6077;SDS011;3067;49.470;10.394;2023-06-22T11:33:20;4.40;;;3.63;;
6077;SDS011;3067;49.470;10.394;2023-06-22T11:35:47;4.78;;;4.13;;
6077;SDS011;3067;49.470;10.394;2023-06-22T11:38:14;4.90;;;3.97;;
6077;SDS011;3067;49.470;10.394;2023-06-22T11:40:42;4.18;;;3.78;;
6077;SDS011;3067;49.470;10.394;2023-06-22T11:43:09;9.20;;;4.05;;
6077;SDS011;3067;49.470;10.394;2023-06-22T11:45:36;4.63;;;3.97;;
6077;SDS011;3067;49.470;10.394;2023-06-22T11:48:05;3.75;;;3.45;;
6077;SDS011;3067;49.470;10.394;2023-06-22T11:50:33;11.63;;;3.78;;
6077;SDS011;3067;49.470;10.394;2023-06-22T11:53:01;4.30;;;3.75;;
6077;SDS011;3067;49.470;10.394;2023-06-22T11:55:29;3.80;;;3.60;;
6077;SDS011;3067;49.470;10.394;2023-06-22T11:57:56;4.10;;;3.60;;
6077;SDS011;3067;49.470;10.394;2023-06-22T12:00:28;4.45;;;3.63;;
6077;SDS011;3067;49.470;10.394;2023-06-22T12:02:55;7.53;;;3.72;;
6077;SDS011;3067;49.470;10.394;2023-06-22T12:05:24;3.63;;;3.35;;
6077;SDS011;3067;49.470;10.394;2023-06-22T12:07:53;4.82;;;3.10;;
6077;SDS011;3067;49.470;10.394;2023-06-22T12:10:20;9.98;;;3.63;;
6077;SDS011;3067;49.470;10.394;2023-06-22T12:12:47;7.40;;;3.45;;
6077;SDS011;3067;49.470;10.394;2023-06-22T12:15:15;3.53;;;3.35;;
6077;SDS011;3067;49.470;10.394;2023-06-22T12:17:42;8.48;;;3.83;;
6077;SDS011;3067;49.470;10.394;2023-06-22T12:20:10;7.50;;;3.30;;
6077;SDS011;3067;49.470;10.394;2023-06-22T12:22:40;4.03;;;3.22;;
6077;SDS011;3067;49.470;10.394;2023-06-22T12:25:07;4.57;;;3.10;;
6077;SDS011;3067;49.470;10.394;2023-06-22T12:27:34;9.60;;;3.20;;
6077;SDS011;3067;49.470;10.394;2023-06-22T12:30:02;8.50;;;2.97;;
6077;SDS011;3067;49.470;10.394;2023-06-22T12:32:29;6.68;;;3.28;;
6077;SDS011;3067;49.470;10.394;2023-06-22T12:34:57;4.72;;;3.20;;
6077;SDS011;3067;49.470;10.394;2023-06-22T12:37:24;4.95;;;3.20;;
6077;SDS011;3067;49.470;10.394;2023-06-22T12:39:54;4.10;;;3.30;;
6077;SDS011;3067;49.470;10.394;2023-06-22T12:42:21;8.45;;;3.45;;
6077;SDS011;3067;49.470;10.394;2023-06-22T12:44:49;3.50;;;3.30;;
6077;SDS011;3067;49.470;10.394;2023-06-22T12:47:16;5.57;;;3.50;;
6077;SDS011;3067;49.470;10.394;2023-06-22T12:49:45;5.60;;;3.33;;
6077;SDS011;3067;49.470;10.394;2023-06-22T12:52:12;10.23;;;3.45;;
6077;SDS011;3067;49.470;10.394;2023-06-22T12:54:39;5.03;;;3.50;;
6077;SDS011;3067;49.470;10.394;2023-06-22T12:57:08;4.10;;;3.30;;
6077;SDS011;3067;49.470;10.394;2023-06-22T12:59:36;6.53;;;3.08;;
6077;SDS011;3067;49.470;10.394;2023-06-22T13:02:03;5.43;;;3.53;;
6077;SDS011;3067;49.470;10.394;2023-06-22T13:04:30;3.65;;;3.33;;
6077;SDS011;3067;49.470;10.394;2023-06-22T13:06:58;8.43;;;3.20;;
6077;SDS011;3067;49.470;10.394;2023-06-22T13:09:25;3.90;;;3.50;;
6077;SDS011;3067;49.470;10.394;2023-06-22T13:11:53;23.95;;;4.00;;
6077;SDS011;3067;49.470;10.394;2023-06-22T13:16:50;5.90;;;3.95;;
6077;SDS011;3067;49.470;10.394;2023-06-22T13:19:17;7.35;;;3.67;;
6077;SDS011;3067;49.470;10.394;2023-06-22T13:21:44;5.35;;;3.55;;
6077;SDS011;3067;49.470;10.394;2023-06-22T13:24:12;6.80;;;3.70;;
6077;SDS011;3067;49.470;10.394;2023-06-22T13:26:39;7.93;;;3.67;;
6077;SDS011;3067;49.470;10.394;2023-06-22T13:29:06;7.65;;;3.35;;
6077;SDS011;3067;49.470;10.394;2023-06-22T13:31:34;4.53;;;3.78;;
6077;SDS011;3067;49.470;10.394;2023-06-22T13:34:02;4.72;;;3.40;;
6077;SDS011;3067;49.470;10.394;2023-06-22T13:36:30;9.50;;;3.45;;
6077;SDS011;3067;49.470;10.394;2023-06-22T13:38:57;8.63;;;3.80;;
6077;SDS011;3067;49.470;10.394;2023-06-22T13:41:24;5.63;;;3.55;;
6077;SDS011;3067;49.470;10.394;2023-06-22T13:43:52;5.10;;;3.67;;
6077;SDS011;3067;49.470;10.394;2023-06-22T13:46:19;9.07;;;4.60;;
6077;SDS011;3067;49.470;10.394;2023-06-22T13:48:47;4.72;;;4.13;;
6077;SDS011;3067;49.470;10.394;2023-06-22T13:51:15;5.13;;;3.85;;
6077;SDS011;3067;49.470;10.394;2023-06-22T13:53:43;7.80;;;3.75;;
6077;SDS011;3067;49.470;10.394;2023-06-22T13:56:10;10.07;;;3.75;;
6077;SDS011;3067;49.470;10.394;2023-06-22T13:58:37;6.32;;;3.80;;
6077;SDS011;3067;49.470;10.394;2023-06-22T14:01:05;6.30;;;3.60;;
6077;SDS011;3067;49.470;10.394;2023-06-22T14:03:32;5.30;;;3.30;;
6077;SDS011;3067;49.470;10.394;2023-06-22T14:05:59;6.43;;;4.00;;
6077;SDS011;3067;49.470;10.394;2023-06-22T14:08:28;5.53;;;3.95;;
6077;SDS011;3067;49.470;10.394;2023-06-22T14:10:56;7.80;;;3.95;;
6077;SDS011;3067;49.470;10.394;2023-06-22T14:13:23;8.80;;;4.30;;
6077;SDS011;3067;49.470;10.394;2023-06-22T14:15:50;6.57;;;3.50;;
6077;SDS011;3067;49.470;10.394;2023-06-22T14:18:19;8.15;;;3.80;;
6077;SDS011;3067;49.470;10.394;2023-06-22T14:20:47;11.23;;;2.95;;
6077;SDS011;3067;49.470;10.394;2023-06-22T14:23:15;5.13;;;3.50;;
6077;SDS011;3067;49.470;10.394;2023-06-22T14:25:43;6.50;;;3.10;;
6077;SDS011;3067;49.470;10.394;2023-06-22T14:28:11;6.72;;;3.30;;
6077;SDS011;3067;49.470;10.394;2023-06-22T14:30:38;11.55;;;3.78;;
6077;SDS011;3067;49.470;10.394;2023-06-22T14:33:05;11.10;;;3.58;;
6077;SDS011;3067;49.470;10.394;2023-06-22T14:35:33;8.82;;;3.70;;
6077;SDS011;3067;49.470;10.394;2023-06-22T14:38:00;8.68;;;3.38;;
6077;SDS011;3067;49.470;10.394;2023-06-22T14:40:27;6.63;;;3.85;;
6077;SDS011;3067;49.470;10.394;2023-06-22T14:42:56;11.90;;;3.97;;
6077;SDS011;3067;49.470;10.394;2023-06-22T14:45:23;6.13;;;3.80;;
6077;SDS011;3067;49.470;10.394;2023-06-22T14:47:51;12.73;;;3.88;;
6077;SDS011;3067;49.470;10.394;2023-06-22T14:50:18;9.35;;;3.60;;
6077;SDS011;3067;49.470;10.394;2023-06-22T14:52:46;8.23;;;3.40;;
6077;SDS011;3067;49.470;10.394;2023-06-22T14:55:13;3.67;;;3.15;;
6077;SDS011;3067;49.470;10.394;2023-06-22T14:57:41;6.68;;;3.33;;
6077;SDS011;3067;49.470;10.394;2023-06-22T15:00:10;7.45;;;3.63;;